sensor_id;sensor_type;location;lat;lon;timestamp;pressure;altitude;pressure_sealevel;temperature;humidity
13015;BME280;6573;57.696;11.950;2023-02-26T19:51:21;102537.97;;;6.38;100.00
13015;BME280;6573;57.696;11.950;2023-02-26T19:54:02;102561.31;;;6.55;100.00
13015;BME280;6573;57.696;11.950;2023-02-26T19:56:30;102562.00;;;6.50;100.00
13015;BME280;6573;57.696;11.950;2023-02-26T19:59:00;102579.88;;;6.61;100.00
13015;BME280;6573;57.696;11.950;2023-02-26T20:01:29;102572.97;;;6.63;100.00
13015;BME280;6573;57.696;11.950;2023-02-26T20:03:57;102520.06;;;6.27;100.00
13015;BME280;6573;57.696;11.950;2023-02-26T20:06:28;102577.38;;;6.64;100.00
13015;BME280;6573;57.696;11.950;2023-02-26T20:08:58;102580.34;;;6.73;100.00
13015;BME280;6573;57.696;11.950;2023-02-26T20:11:26;102594.28;;;6.72;100.00
13015;BME280;6573;57.696;11.950;2023-02-26T20:13:55;102581.25;;;6.52;100.00
13015;BME280;6573;57.696;11.950;2023-02-26T20:16:23;102584.47;;;6.66;100.00
13015;BME280;6573;57.696;11.950;2023-02-26T20:18:53;102589.88;;;6.71;100.00
13015;BME280;6573;57.696;11.950;2023-02-26T20:21:21;102572.19;;;6.65;100.00
13015;BME280;6573;57.696;11.950;2023-02-26T20:23:52;102585.34;;;6.67;100.00
13015;BME280;6573;57.696;11.950;2023-02-26T20:26:20;102594.03;;;6.66;100.00
13015;BME280;6573;57.696;11.950;2023-02-26T20:28:48;102590.59;;;6.67;100.00
13015;BME280;6573;57.696;11.950;2023-02-26T20:31:17;102561.88;;;6.47;100.00
13015;BME280;6573;57.696;11.950;2023-02-26T20:33:45;102549.38;;;6.40;100.00
13015;BME280;6573;57.696;11.950;2023-02-26T20:36:13;102591.53;;;6.69;100.00
13015;BME280;6573;57.696;11.950;2023-02-26T20:38:42;102602.19;;;6.73;100.00
13015;BME280;6573;57.696;11.950;2023-02-26T20:41:12;102602.94;;;6.71;100.00
13015;BME280;6573;57.696;11.950;2023-02-26T20:43:42;102562.13;;;6.53;100.00
13015;BME280;6573;57.696;11.950;2023-02-26T20:46:11;102555.78;;;6.47;100.00
13015;BME280;6573;57.696;11.950;2023-02-26T20:48:39;102611.75;;;6.73;100.00
13015;BME280;6573;57.696;11.950;2023-02-26T20:51:09;102610.34;;;6.81;100.00
13015;BME280;6573;57.696;11.950;2023-02-26T20:53:38;102607.00;;;6.85;100.00
13015;BME280;6573;57.696;11.950;2023-02-26T20:56:06;102607.88;;;6.84;100.00
13015;BME280;6573;57.696;11.950;2023-02-26T20:58:36;102613.53;;;6.94;100.00
13015;BME280;6573;57.696;11.950;2023-02-26T21:01:05;102594.78;;;6.84;100.00
13015;BME280;6573;57.696;11.950;2023-02-26T21:03:33;102585.72;;;6.76;100.00
13015;BME280;6573;57.696;11.950;2023-02-26T21:06:01;102615.44;;;6.78;100.00
13015;BME280;6573;57.696;11.950;2023-02-26T21:08:29;102613.16;;;6.85;100.00
13015;BME280;6573;57.696;11.950;2023-02-26T21:10:59;102585.50;;;6.70;100.00
13015;BME280;6573;57.696;11.950;2023-02-26T21:13:27;102612.78;;;6.97;100.00
13015;BME280;6573;57.696;11.950;2023-02-26T21:15:57;102610.66;;;6.88;100.00
13015;BME280;6573;57.696;11.950;2023-02-26T21:18:26;102601.41;;;6.76;100.00
13015;BME280;6573;57.696;11.950;2023-02-26T21:20:54;102606.41;;;6.70;100.00
13015;BME280;6573;57.696;11.950;2023-02-26T21:23:22;102590.91;;;6.53;100.00
13015;BME280;6573;57.696;11.950;2023-02-26T21:25:51;102613.28;;;6.68;100.00
13015;BME280;6573;57.696;11.950;2023-02-26T21:28:19;102623.25;;;6.76;100.00
13015;BME280;6573;57.696;11.950;2023-02-26T21:30:50;102620.69;;;6.78;100.00
13015;BME280;6573;57.696;11.950;2023-02-26T21:33:19;102622.06;;;6.90;100.00
13015;BME280;6573;57.696;11.950;2023-02-26T21:35:48;102612.16;;;6.82;100.00
13015;BME280;6573;57.696;11.950;2023-02-26T21:38:17;102590.31;;;6.61;100.00
13015;BME280;6573;57.696;11.950;2023-02-26T21:40:46;102631.66;;;6.69;100.00
13015;BME280;6573;57.696;11.950;2023-02-26T21:43:14;102616.84;;;6.49;100.00
13015;BME280;6573;57.696;11.950;2023-02-26T21:45:43;102620.38;;;6.30;100.00
13015;BME280;6573;57.696;11.950;2023-02-26T21:48:11;102632.50;;;6.28;100.00
13015;BME280;6573;57.696;11.950;2023-02-26T21:50:40;102626.88;;;6.19;100.00
13015;BME280;6573;57.696;11.950;2023-02-26T21:53:08;102628.25;;;6.11;100.00
13015;BME280;6573;57.696;11.950;2023-02-26T21:55:37;102635.28;;;5.93;100.00
13015;BME280;6573;57.696;11.950;2023-02-26T21:58:05;102616.16;;;5.75;100.00
13015;BME280;6573;57.696;11.950;2023-02-26T22:00:33;102632.78;;;5.77;100.00
13015;BME280;6573;57.696;11.950;2023-02-26T22:03:01;102639.91;;;5.62;100.00
13015;BME280;6573;57.696;11.950;2023-02-26T22:05:29;102636.50;;;5.63;100.00
13015;BME280;6573;57.696;11.950;2023-02-26T22:07:59;102644.66;;;5.70;100.00
13015;BME280;6573;57.696;11.950;2023-02-26T22:10:27;102615.16;;;5.54;100.00
13015;BME280;6573;57.696;11.950;2023-02-26T22:12:55;102650.31;;;5.79;100.00
13015;BME280;6573;57.696;11.950;2023-02-26T22:15:23;102638.69;;;5.73;100.00
13015;BME280;6573;57.696;11.950;2023-02-26T22:17:52;102647.38;;;5.91;100.00
13015;BME280;6573;57.696;11.950;2023-02-26T22:20:20;102635.97;;;5.89;100.00
13015;BME280;6573;57.696;11.950;2023-02-26T22:22:48;102627.19;;;5.87;100.00
13015;BME280;6573;57.696;11.950;2023-02-26T22:25:18;102658.78;;;5.93;100.00
13015;BME280;6573;57.696;11.950;2023-02-26T22:27:46;102607.38;;;5.73;100.00
13015;BME280;6573;57.696;11.950;2023-02-26T22:30:15;102651.94;;;5.95;100.00
13015;BME280;6573;57.696;11.950;2023-02-26T22:32:43;102653.44;;;5.90;100.00
13015;BME280;6573;57.696;11.950;2023-02-26T22:35:12;102669.13;;;5.90;100.00
13015;BME280;6573;57.696;11.950;2023-02-26T22:37:40;102641.56;;;5.79;100.00
13015;BME280;6573;57.696;11.950;2023-02-26T22:40:10;102669.81;;;6.05;100.00
13015;BME280;6573;57.696;11.950;2023-02-26T22:42:41;102662.63;;;6.01;100.00
13015;BME280;6573;57.696;11.950;2023-02-26T22:45:11;102658.03;;;5.96;100.00
13015;BME280;6573;57.696;11.950;2023-02-26T22:47:42;102676.66;;;6.03;100.00
13015;BME280;6573;57.696;11.950;2023-02-26T22:50:12;102677.06;;;5.93;100.00
13015;BME280;6573;57.696;11.950;2023-02-26T22:52:41;102654.06;;;5.67;100.00
13015;BME280;6573;57.696;11.950;2023-02-26T22:55:10;102686.56;;;5.91;100.00
13015;BME280;6573;57.696;11.950;2023-02-26T22:57:39;102685.44;;;5.86;100.00
13015;BME280;6573;57.696;11.950;2023-02-26T23:00:10;102681.59;;;5.78;100.00
13015;BME280;6573;57.696;11.950;2023-02-26T23:02:40;102672.50;;;5.70;100.00
13015;BME280;6573;57.696;11.950;2023-02-26T23:05:09;102687.50;;;5.56;100.00
13015;BME280;6573;57.696;11.950;2023-02-26T23:07:38;102680.59;;;5.76;100.00
13015;BME280;6573;57.696;11.950;2023-02-26T23:10:09;102668.09;;;5.69;100.00
13015;BME280;6573;57.696;11.950;2023-02-26T23:12:39;102685.00;;;5.77;100.00
13015;BME280;6573;57.696;11.950;2023-02-26T23:15:09;102677.31;;;5.80;100.00
13015;BME280;6573;57.696;11.950;2023-02-26T23:17:37;102673.16;;;5.66;100.00
13015;BME280;6573;57.696;11.950;2023-02-26T23:20:07;102665.59;;;5.53;100.00
13015;BME280;6573;57.696;11.950;2023-02-26T23:22:36;102674.09;;;5.31;100.00
13015;BME280;6573;57.696;11.950;2023-02-26T23:25:05;102667.75;;;5.44;100.00
13015;BME280;6573;57.696;11.950;2023-02-26T23:27:33;102670.66;;;5.50;100.00
13015;BME280;6573;57.696;11.950;2023-02-26T23:30:03;102657.28;;;5.61;100.00
13015;BME280;6573;57.696;11.950;2023-02-26T23:32:31;102652.25;;;5.66;100.00
13015;BME280;6573;57.696;11.950;2023-02-26T23:34:59;102646.78;;;5.60;100.00
13015;BME280;6573;57.696;11.950;2023-02-26T23:37:28;102652.16;;;5.63;100.00
13015;BME280;6573;57.696;11.950;2023-02-26T23:39:56;102653.09;;;5.46;100.00
13015;BME280;6573;57.696;11.950;2023-02-26T23:42:24;102628.59;;;5.44;100.00
13015;BME280;6573;57.696;11.950;2023-02-26T23:44:52;102646.47;;;5.54;100.00
13015;BME280;6573;57.696;11.950;2023-02-26T23:47:22;102625.34;;;5.48;100.00
13015;BME280;6573;57.696;11.950;2023-02-26T23:49:50;102623.81;;;5.53;100.00
13015;BME280;6573;57.696;11.950;2023-02-26T23:52:18;102652.72;;;5.75;100.00
13015;BME280;6573;57.696;11.950;2023-02-26T23:54:46;102635.38;;;5.77;100.00
13015;BME280;6573;57.696;11.950;2023-02-26T23:57:14;102656.72;;;5.86;100.00
13015;BME280;6573;57.696;11.950;2023-02-26T23:59:43;102657.63;;;5.86;100.00
